sensor_id;sensor_type;location;lat;lon;timestamp;P1;durP1;ratioP1;P2;durP2;ratioP2
56599;SDS011;51832;48.152;11.530;2023-02-28T00:09:04;4.82;;;2.95;;
56599;SDS011;51832;48.152;11.530;2023-02-28T00:14:05;5.45;;;3.30;;
56599;SDS011;51832;48.152;11.530;2023-02-28T00:19:05;5.43;;;3.50;;
56599;SDS011;51832;48.152;11.530;2023-02-28T00:24:06;3.05;;;2.70;;
56599;SDS011;51832;48.152;11.530;2023-02-28T00:29:06;3.65;;;2.80;;
56599;SDS011;51832;48.152;11.530;2023-02-28T00:34:07;6.50;;;3.30;;
56599;SDS011;51832;48.152;11.530;2023-02-28T00:39:07;5.80;;;3.33;;
56599;SDS011;51832;48.152;11.530;2023-02-28T00:44:08;5.18;;;3.05;;
56599;SDS011;51832;48.152;11.530;2023-02-28T00:49:09;5.15;;;3.20;;
56599;SDS011;51832;48.152;11.530;2023-02-28T00:54:09;4.90;;;2.80;;
56599;SDS011;51832;48.152;11.530;2023-02-28T00:59:09;5.63;;;2.95;;
56599;SDS011;51832;48.152;11.530;2023-02-28T01:04:11;4.03;;;3.13;;
56599;SDS011;51832;48.152;11.530;2023-02-28T01:09:12;4.03;;;2.83;;
56599;SDS011;51832;48.152;11.530;2023-02-28T01:14:13;3.85;;;2.90;;
56599;SDS011;51832;48.152;11.530;2023-02-28T01:19:14;3.25;;;2.75;;
56599;SDS011;51832;48.152;11.530;2023-02-28T01:24:15;5.95;;;3.38;;
56599;SDS011;51832;48.152;11.530;2023-02-28T01:29:16;8.18;;;3.63;;
56599;SDS011;51832;48.152;11.530;2023-02-28T01:34:16;7.65;;;2.75;;
56599;SDS011;51832;48.152;11.530;2023-02-28T01:39:19;5.35;;;3.05;;
56599;SDS011;51832;48.152;11.530;2023-02-28T01:49:57;6.90;;;3.38;;
56599;SDS011;51832;48.152;11.530;2023-02-28T01:55:01;4.43;;;2.95;;
56599;SDS011;51832;48.152;11.530;2023-02-28T02:00:06;4.45;;;3.00;;
56599;SDS011;51832;48.152;11.530;2023-02-28T02:05:11;4.80;;;3.30;;
56599;SDS011;51832;48.152;11.530;2023-02-28T02:10:21;5.68;;;3.63;;
56599;SDS011;51832;48.152;11.530;2023-02-28T02:15:31;5.20;;;3.15;;
56599;SDS011;51832;48.152;11.530;2023-02-28T02:38:17;6.10;;;3.70;;
56599;SDS011;51832;48.152;11.530;2023-02-28T02:48:08;4.90;;;3.10;;
56599;SDS011;51832;48.152;11.530;2023-02-28T02:53:13;4.15;;;3.30;;
56599;SDS011;51832;48.152;11.530;2023-02-28T02:58:18;5.63;;;3.75;;
56599;SDS011;51832;48.152;11.530;2023-02-28T03:03:21;5.82;;;3.65;;
56599;SDS011;51832;48.152;11.530;2023-02-28T03:08:29;6.55;;;3.50;;
56599;SDS011;51832;48.152;11.530;2023-02-28T03:19:02;7.53;;;3.53;;
56599;SDS011;51832;48.152;11.530;2023-02-28T03:24:18;5.53;;;3.30;;
56599;SDS011;51832;48.152;11.530;2023-02-28T03:29:34;8.48;;;3.85;;
56599;SDS011;51832;48.152;11.530;2023-02-28T03:34:38;6.18;;;3.90;;
56599;SDS011;51832;48.152;11.530;2023-02-28T03:39:46;9.20;;;4.07;;
56599;SDS011;51832;48.152;11.530;2023-02-28T03:44:55;7.13;;;3.85;;
56599;SDS011;51832;48.152;11.530;2023-02-28T03:50:03;8.05;;;4.35;;
56599;SDS011;51832;48.152;11.530;2023-02-28T03:55:09;7.10;;;4.20;;
56599;SDS011;51832;48.152;11.530;2023-02-28T04:00:14;9.43;;;4.65;;
56599;SDS011;51832;48.152;11.530;2023-02-28T04:05:21;8.75;;;4.30;;
56599;SDS011;51832;48.152;11.530;2023-02-28T04:10:22;10.75;;;5.05;;
56599;SDS011;51832;48.152;11.530;2023-02-28T04:15:23;9.88;;;4.65;;
56599;SDS011;51832;48.152;11.530;2023-02-28T04:20:24;11.15;;;5.43;;
56599;SDS011;51832;48.152;11.530;2023-02-28T04:25:25;10.50;;;5.05;;
56599;SDS011;51832;48.152;11.530;2023-02-28T04:30:25;9.57;;;4.97;;
56599;SDS011;51832;48.152;11.530;2023-02-28T04:35:25;9.63;;;5.40;;
56599;SDS011;51832;48.152;11.530;2023-02-28T04:40:26;8.82;;;4.75;;
56599;SDS011;51832;48.152;11.530;2023-02-28T04:45:26;9.77;;;5.10;;
56599;SDS011;51832;48.152;11.530;2023-02-28T04:50:30;9.80;;;4.97;;
56599;SDS011;51832;48.152;11.530;2023-02-28T04:55:30;11.13;;;5.95;;
56599;SDS011;51832;48.152;11.530;2023-02-28T05:00:30;9.90;;;5.20;;
56599;SDS011;51832;48.152;11.530;2023-02-28T05:05:31;10.73;;;5.82;;
56599;SDS011;51832;48.152;11.530;2023-02-28T05:10:31;10.70;;;6.20;;
56599;SDS011;51832;48.152;11.530;2023-02-28T05:15:32;11.63;;;5.60;;
56599;SDS011;51832;48.152;11.530;2023-02-28T05:20:32;13.10;;;6.28;;
56599;SDS011;51832;48.152;11.530;2023-02-28T05:25:33;14.07;;;6.38;;
56599;SDS011;51832;48.152;11.530;2023-02-28T05:30:33;15.25;;;7.57;;
56599;SDS011;51832;48.152;11.530;2023-02-28T05:35:34;19.42;;;9.23;;
56599;SDS011;51832;48.152;11.530;2023-02-28T05:40:38;15.88;;;8.93;;
56599;SDS011;51832;48.152;11.530;2023-02-28T05:45:40;10.75;;;6.35;;
56599;SDS011;51832;48.152;11.530;2023-02-28T05:50:40;10.05;;;6.57;;
56599;SDS011;51832;48.152;11.530;2023-02-28T05:55:42;11.90;;;7.00;;
56599;SDS011;51832;48.152;11.530;2023-02-28T06:00:42;13.90;;;7.03;;
56599;SDS011;51832;48.152;11.530;2023-02-28T06:05:43;11.57;;;7.07;;
56599;SDS011;51832;48.152;11.530;2023-02-28T06:10:43;13.70;;;8.23;;
56599;SDS011;51832;48.152;11.530;2023-02-28T06:15:45;14.35;;;8.65;;
56599;SDS011;51832;48.152;11.530;2023-02-28T06:20:51;14.88;;;8.23;;
56599;SDS011;51832;48.152;11.530;2023-02-28T06:25:54;19.52;;;8.10;;
56599;SDS011;51832;48.152;11.530;2023-02-28T06:30:58;16.13;;;8.23;;
56599;SDS011;51832;48.152;11.530;2023-02-28T06:35:58;15.82;;;8.23;;
56599;SDS011;51832;48.152;11.530;2023-02-28T06:40:59;16.17;;;7.75;;
56599;SDS011;51832;48.152;11.530;2023-02-28T06:46:00;17.25;;;8.25;;
56599;SDS011;51832;48.152;11.530;2023-02-28T06:51:04;17.65;;;8.82;;
56599;SDS011;51832;48.152;11.530;2023-02-28T06:56:06;20.77;;;9.40;;
56599;SDS011;51832;48.152;11.530;2023-02-28T07:01:08;15.43;;;8.95;;
56599;SDS011;51832;48.152;11.530;2023-02-28T07:06:08;16.92;;;9.35;;
56599;SDS011;51832;48.152;11.530;2023-02-28T07:11:09;19.00;;;9.20;;
56599;SDS011;51832;48.152;11.530;2023-02-28T07:16:10;21.05;;;9.32;;
56599;SDS011;51832;48.152;11.530;2023-02-28T07:21:11;19.60;;;9.40;;
56599;SDS011;51832;48.152;11.530;2023-02-28T07:26:13;18.73;;;8.95;;
56599;SDS011;51832;48.152;11.530;2023-02-28T07:31:15;17.27;;;8.73;;
56599;SDS011;51832;48.152;11.530;2023-02-28T07:36:17;17.92;;;8.77;;
56599;SDS011;51832;48.152;11.530;2023-02-28T07:41:19;20.00;;;9.85;;
56599;SDS011;51832;48.152;11.530;2023-02-28T07:46:21;18.97;;;10.33;;
56599;SDS011;51832;48.152;11.530;2023-02-28T07:51:22;18.88;;;8.88;;
56599;SDS011;51832;48.152;11.530;2023-02-28T07:56:22;16.27;;;9.10;;
56599;SDS011;51832;48.152;11.530;2023-02-28T08:01:23;19.70;;;9.52;;
56599;SDS011;51832;48.152;11.530;2023-02-28T08:06:24;20.00;;;10.02;;
56599;SDS011;51832;48.152;11.530;2023-02-28T08:11:26;19.75;;;9.43;;
56599;SDS011;51832;48.152;11.530;2023-02-28T08:16:26;20.92;;;10.05;;
56599;SDS011;51832;48.152;11.530;2023-02-28T08:21:26;18.95;;;10.00;;
56599;SDS011;51832;48.152;11.530;2023-02-28T08:26:27;21.85;;;10.00;;
56599;SDS011;51832;48.152;11.530;2023-02-28T08:31:27;16.85;;;9.65;;
56599;SDS011;51832;48.152;11.530;2023-02-28T08:36:28;22.27;;;10.57;;
56599;SDS011;51832;48.152;11.530;2023-02-28T08:41:29;20.48;;;11.13;;
56599;SDS011;51832;48.152;11.530;2023-02-28T08:46:30;17.92;;;10.30;;
56599;SDS011;51832;48.152;11.530;2023-02-28T08:51:30;18.75;;;10.40;;
56599;SDS011;51832;48.152;11.530;2023-02-28T08:56:30;21.45;;;10.82;;
56599;SDS011;51832;48.152;11.530;2023-02-28T09:01:31;18.00;;;9.80;;
56599;SDS011;51832;48.152;11.530;2023-02-28T09:06:31;18.17;;;10.35;;
56599;SDS011;51832;48.152;11.530;2023-02-28T09:11:32;18.98;;;9.73;;
56599;SDS011;51832;48.152;11.530;2023-02-28T09:16:34;19.45;;;9.52;;
56599;SDS011;51832;48.152;11.530;2023-02-28T09:21:34;18.80;;;10.88;;
56599;SDS011;51832;48.152;11.530;2023-02-28T09:26:36;18.80;;;10.10;;
56599;SDS011;51832;48.152;11.530;2023-02-28T09:31:37;18.77;;;10.02;;
56599;SDS011;51832;48.152;11.530;2023-02-28T09:36:37;23.17;;;11.20;;
56599;SDS011;51832;48.152;11.530;2023-02-28T09:41:39;23.45;;;10.50;;
56599;SDS011;51832;48.152;11.530;2023-02-28T09:46:48;16.48;;;9.98;;
56599;SDS011;51832;48.152;11.530;2023-02-28T09:57:05;18.27;;;10.30;;
56599;SDS011;51832;48.152;11.530;2023-02-28T10:13:02;25.08;;;10.45;;
56599;SDS011;51832;48.152;11.530;2023-02-28T10:18:09;19.55;;;10.68;;
56599;SDS011;51832;48.152;11.530;2023-02-28T10:23:22;19.92;;;10.20;;
56599;SDS011;51832;48.152;11.530;2023-02-28T10:28:28;20.60;;;11.30;;
56599;SDS011;51832;48.152;11.530;2023-02-28T10:33:31;17.25;;;9.90;;
56599;SDS011;51832;48.152;11.530;2023-02-28T10:38:38;21.35;;;10.45;;
56599;SDS011;51832;48.152;11.530;2023-02-28T10:43:40;18.77;;;11.05;;
56599;SDS011;51832;48.152;11.530;2023-02-28T10:48:44;18.27;;;10.10;;
56599;SDS011;51832;48.152;11.530;2023-02-28T10:53:57;16.30;;;9.50;;
56599;SDS011;51832;48.152;11.530;2023-02-28T11:09:22;16.25;;;9.85;;
56599;SDS011;51832;48.152;11.530;2023-02-28T11:14:30;19.48;;;10.40;;
56599;SDS011;51832;48.152;11.530;2023-02-28T11:19:37;19.08;;;10.27;;
56599;SDS011;51832;48.152;11.530;2023-02-28T11:24:41;18.33;;;9.75;;
56599;SDS011;51832;48.152;11.530;2023-02-28T11:29:46;17.50;;;10.30;;
56599;SDS011;51832;48.152;11.530;2023-02-28T11:40:00;19.87;;;10.77;;
56599;SDS011;51832;48.152;11.530;2023-02-28T11:46:05;16.58;;;9.50;;
56599;SDS011;51832;48.152;11.530;2023-02-28T11:51:14;16.15;;;10.15;;
56599;SDS011;51832;48.152;11.530;2023-02-28T12:28:37;17.45;;;9.68;;
56599;SDS011;51832;48.152;11.530;2023-02-28T12:33:44;17.17;;;9.63;;
56599;SDS011;51832;48.152;11.530;2023-02-28T12:38:49;17.23;;;10.05;;
56599;SDS011;51832;48.152;11.530;2023-02-28T12:44:13;16.70;;;9.73;;
56599;SDS011;51832;48.152;11.530;2023-02-28T12:49:28;16.38;;;9.70;;
56599;SDS011;51832;48.152;11.530;2023-02-28T12:59:59;13.95;;;8.93;;
56599;SDS011;51832;48.152;11.530;2023-02-28T13:10:45;14.27;;;8.68;;
56599;SDS011;51832;48.152;11.530;2023-02-28T13:21:27;13.57;;;7.82;;
56599;SDS011;51832;48.152;11.530;2023-02-28T13:47:40;18.90;;;10.55;;
56599;SDS011;51832;48.152;11.530;2023-02-28T13:52:53;12.60;;;8.90;;
56599;SDS011;51832;48.152;11.530;2023-02-28T14:08:34;15.02;;;8.85;;
56599;SDS011;51832;48.152;11.530;2023-02-28T14:13:42;21.90;;;11.05;;
56599;SDS011;51832;48.152;11.530;2023-02-28T14:18:50;21.60;;;12.32;;
56599;SDS011;51832;48.152;11.530;2023-02-28T14:39:48;20.27;;;11.73;;
56599;SDS011;51832;48.152;11.530;2023-02-28T14:44:53;18.10;;;10.15;;
56599;SDS011;51832;48.152;11.530;2023-02-28T14:49:56;19.98;;;11.02;;
56599;SDS011;51832;48.152;11.530;2023-02-28T15:00:15;14.25;;;9.07;;
56599;SDS011;51832;48.152;11.530;2023-02-28T15:10:27;11.80;;;7.75;;
56599;SDS011;51832;48.152;11.530;2023-02-28T15:15:40;21.00;;;13.93;;
56599;SDS011;51832;48.152;11.530;2023-02-28T15:20:44;12.02;;;9.32;;
56599;SDS011;51832;48.152;11.530;2023-02-28T15:25:45;10.95;;;8.63;;
56599;SDS011;51832;48.152;11.530;2023-02-28T15:30:56;10.88;;;7.90;;
56599;SDS011;51832;48.152;11.530;2023-02-28T15:41:04;12.65;;;8.52;;
56599;SDS011;51832;48.152;11.530;2023-02-28T15:46:08;11.77;;;8.65;;
56599;SDS011;51832;48.152;11.530;2023-02-28T15:56:30;12.48;;;8.95;;
56599;SDS011;51832;48.152;11.530;2023-02-28T16:01:36;11.23;;;8.93;;
56599;SDS011;51832;48.152;11.530;2023-02-28T16:06:38;12.10;;;8.75;;
56599;SDS011;51832;48.152;11.530;2023-02-28T16:11:44;12.68;;;8.60;;
56599;SDS011;51832;48.152;11.530;2023-02-28T16:16:48;12.85;;;9.02;;
56599;SDS011;51832;48.152;11.530;2023-02-28T16:21:51;16.00;;;8.98;;
56599;SDS011;51832;48.152;11.530;2023-02-28T16:26:52;14.40;;;9.10;;
56599;SDS011;51832;48.152;11.530;2023-02-28T16:31:54;12.82;;;8.50;;
56599;SDS011;51832;48.152;11.530;2023-02-28T16:36:55;17.23;;;8.43;;
56599;SDS011;51832;48.152;11.530;2023-02-28T16:41:55;15.18;;;8.90;;
56599;SDS011;51832;48.152;11.530;2023-02-28T16:46:55;14.50;;;8.57;;
56599;SDS011;51832;48.152;11.530;2023-02-28T16:51:56;14.32;;;9.40;;
56599;SDS011;51832;48.152;11.530;2023-02-28T16:56:56;17.52;;;9.20;;
56599;SDS011;51832;48.152;11.530;2023-02-28T17:01:57;15.27;;;8.90;;
56599;SDS011;51832;48.152;11.530;2023-02-28T17:06:58;15.40;;;9.57;;
56599;SDS011;51832;48.152;11.530;2023-02-28T17:11:58;16.42;;;9.52;;
56599;SDS011;51832;48.152;11.530;2023-02-28T17:16:59;19.15;;;9.88;;
56599;SDS011;51832;48.152;11.530;2023-02-28T17:21:59;17.77;;;9.43;;
56599;SDS011;51832;48.152;11.530;2023-02-28T17:27:00;18.13;;;9.73;;
56599;SDS011;51832;48.152;11.530;2023-02-28T17:32:01;15.77;;;8.98;;
56599;SDS011;51832;48.152;11.530;2023-02-28T17:37:01;16.93;;;9.30;;
56599;SDS011;51832;48.152;11.530;2023-02-28T17:42:02;15.37;;;9.53;;
56599;SDS011;51832;48.152;11.530;2023-02-28T17:47:03;16.92;;;9.55;;
56599;SDS011;51832;48.152;11.530;2023-02-28T17:52:04;15.60;;;9.43;;
56599;SDS011;51832;48.152;11.530;2023-02-28T17:57:04;19.63;;;10.50;;
56599;SDS011;51832;48.152;11.530;2023-02-28T18:02:04;17.13;;;9.55;;
56599;SDS011;51832;48.152;11.530;2023-02-28T18:07:05;17.88;;;10.45;;
56599;SDS011;51832;48.152;11.530;2023-02-28T18:12:07;14.00;;;9.23;;
56599;SDS011;51832;48.152;11.530;2023-02-28T18:17:09;24.77;;;12.35;;
56599;SDS011;51832;48.152;11.530;2023-02-28T18:22:12;18.67;;;9.70;;
56599;SDS011;51832;48.152;11.530;2023-02-28T18:27:12;18.33;;;10.35;;
56599;SDS011;51832;48.152;11.530;2023-02-28T18:32:12;17.33;;;9.93;;
56599;SDS011;51832;48.152;11.530;2023-02-28T18:37:13;23.00;;;11.13;;
56599;SDS011;51832;48.152;11.530;2023-02-28T18:42:15;18.27;;;10.35;;
56599;SDS011;51832;48.152;11.530;2023-02-28T18:47:15;18.60;;;9.77;;
56599;SDS011;51832;48.152;11.530;2023-02-28T18:52:15;20.27;;;9.10;;
56599;SDS011;51832;48.152;11.530;2023-02-28T18:57:16;17.63;;;11.13;;
56599;SDS011;51832;48.152;11.530;2023-02-28T19:02:16;17.13;;;9.77;;
56599;SDS011;51832;48.152;11.530;2023-02-28T19:07:17;19.95;;;10.63;;
56599;SDS011;51832;48.152;11.530;2023-02-28T19:12:17;18.10;;;10.50;;
56599;SDS011;51832;48.152;11.530;2023-02-28T19:17:19;16.95;;;9.80;;
56599;SDS011;51832;48.152;11.530;2023-02-28T19:22:20;19.95;;;11.18;;
56599;SDS011;51832;48.152;11.530;2023-02-28T19:27:20;18.95;;;10.93;;
56599;SDS011;51832;48.152;11.530;2023-02-28T19:32:20;25.13;;;14.23;;
56599;SDS011;51832;48.152;11.530;2023-02-28T19:37:21;21.20;;;12.20;;
56599;SDS011;51832;48.152;11.530;2023-02-28T19:42:21;23.52;;;12.30;;
56599;SDS011;51832;48.152;11.530;2023-02-28T19:47:22;23.05;;;12.02;;
56599;SDS011;51832;48.152;11.530;2023-02-28T19:52:23;20.02;;;10.55;;
56599;SDS011;51832;48.152;11.530;2023-02-28T19:57:24;23.60;;;12.35;;
56599;SDS011;51832;48.152;11.530;2023-02-28T20:02:24;19.27;;;11.35;;
56599;SDS011;51832;48.152;11.530;2023-02-28T20:07:25;20.05;;;11.82;;
56599;SDS011;51832;48.152;11.530;2023-02-28T20:12:25;19.85;;;12.05;;
56599;SDS011;51832;48.152;11.530;2023-02-28T20:17:27;20.45;;;11.05;;
56599;SDS011;51832;48.152;11.530;2023-02-28T20:22:27;24.67;;;12.45;;
56599;SDS011;51832;48.152;11.530;2023-02-28T20:27:28;18.08;;;11.70;;
56599;SDS011;51832;48.152;11.530;2023-02-28T20:32:28;20.15;;;11.23;;
56599;SDS011;51832;48.152;11.530;2023-02-28T20:37:29;21.55;;;12.55;;
56599;SDS011;51832;48.152;11.530;2023-02-28T20:42:30;23.85;;;12.80;;
56599;SDS011;51832;48.152;11.530;2023-02-28T20:47:30;23.25;;;12.07;;
56599;SDS011;51832;48.152;11.530;2023-02-28T20:52:31;20.53;;;11.23;;
56599;SDS011;51832;48.152;11.530;2023-02-28T20:57:31;20.27;;;12.55;;
56599;SDS011;51832;48.152;11.530;2023-02-28T21:02:31;25.73;;;12.23;;
56599;SDS011;51832;48.152;11.530;2023-02-28T21:07:32;19.95;;;11.48;;
56599;SDS011;51832;48.152;11.530;2023-02-28T21:12:32;22.92;;;12.07;;
56599;SDS011;51832;48.152;11.530;2023-02-28T21:17:33;21.08;;;11.23;;
56599;SDS011;51832;48.152;11.530;2023-02-28T21:22:33;20.80;;;11.23;;
56599;SDS011;51832;48.152;11.530;2023-02-28T21:27:33;21.23;;;11.07;;
56599;SDS011;51832;48.152;11.530;2023-02-28T21:32:34;21.90;;;11.35;;
56599;SDS011;51832;48.152;11.530;2023-02-28T21:37:36;20.85;;;11.13;;
56599;SDS011;51832;48.152;11.530;2023-02-28T21:42:37;21.17;;;11.20;;
56599;SDS011;51832;48.152;11.530;2023-02-28T21:47:37;20.70;;;11.55;;
56599;SDS011;51832;48.152;11.530;2023-02-28T21:52:38;22.00;;;11.55;;
56599;SDS011;51832;48.152;11.530;2023-02-28T21:57:38;22.10;;;11.18;;
56599;SDS011;51832;48.152;11.530;2023-02-28T22:02:39;19.02;;;10.88;;
56599;SDS011;51832;48.152;11.530;2023-02-28T22:07:39;20.33;;;11.15;;
56599;SDS011;51832;48.152;11.530;2023-02-28T22:12:41;22.58;;;11.98;;
56599;SDS011;51832;48.152;11.530;2023-02-28T22:17:41;20.77;;;12.25;;
56599;SDS011;51832;48.152;11.530;2023-02-28T22:22:41;27.65;;;12.93;;
56599;SDS011;51832;48.152;11.530;2023-02-28T22:27:42;21.52;;;11.60;;
56599;SDS011;51832;48.152;11.530;2023-02-28T22:32:42;20.85;;;11.13;;
56599;SDS011;51832;48.152;11.530;2023-02-28T22:37:43;20.33;;;11.38;;
56599;SDS011;51832;48.152;11.530;2023-02-28T22:42:43;22.25;;;11.80;;
56599;SDS011;51832;48.152;11.530;2023-02-28T22:47:44;22.23;;;11.17;;
56599;SDS011;51832;48.152;11.530;2023-02-28T22:52:47;22.23;;;11.40;;
56599;SDS011;51832;48.152;11.530;2023-02-28T22:57:48;21.95;;;11.80;;
56599;SDS011;51832;48.152;11.530;2023-02-28T23:02:48;19.57;;;10.77;;
56599;SDS011;51832;48.152;11.530;2023-02-28T23:07:48;20.77;;;11.03;;
56599;SDS011;51832;48.152;11.530;2023-02-28T23:12:49;24.77;;;12.57;;
56599;SDS011;51832;48.152;11.530;2023-02-28T23:17:49;22.50;;;11.50;;
56599;SDS011;51832;48.152;11.530;2023-02-28T23:22:50;20.98;;;11.10;;
56599;SDS011;51832;48.152;11.530;2023-02-28T23:27:50;21.35;;;12.07;;
56599;SDS011;51832;48.152;11.530;2023-02-28T23:32:50;20.73;;;11.40;;
56599;SDS011;51832;48.152;11.530;2023-02-28T23:37:51;22.40;;;12.38;;
56599;SDS011;51832;48.152;11.530;2023-02-28T23:42:51;22.63;;;12.57;;
56599;SDS011;51832;48.152;11.530;2023-02-28T23:47:52;19.73;;;11.27;;
56599;SDS011;51832;48.152;11.530;2023-02-28T23:52:52;22.20;;;11.90;;
56599;SDS011;51832;48.152;11.530;2023-02-28T23:57:53;18.80;;;10.50;;
